GBOOT VNLT-VNLK
Flight info
| Callsign | GBOOT |
|---|---|
| Flight time | 0h 41m |
| Altitude | 5000 |
| Route | |
| Aircraft | DHC6/L-S/U1 |
Departure
| Time | 2025-12-29 20:06 |
|---|---|
| Airport | Langtang Airport (VNLT) |
Arrival
| Time | 2025-12-29 20:48 |
|---|---|
| Airport | Tenzing-Hillary Airport (VNLK) |
| Time | Latitude | Longitude | Altitude | Speed | Heading |
|---|---|---|---|---|---|
| 2025-12-29 19:55 | 28.20035 | 85.58522 | 12728 ft | 0 kts | 238° |
| 2025-12-29 20:04 | 28.20017 | 85.58499 | 12728 ft | 7 kts | 197° |
| 2025-12-29 20:04 | 28.19968 | 85.58556 | 12735 ft | 13 kts | 115° |
| 2025-12-29 20:05 | 28.19887 | 85.58740 | 12755 ft | 3 kts | 110° |
| 2025-12-29 20:05 | 28.19877 | 85.58728 | 12750 ft | 4 kts | 299° |
| 2025-12-29 20:06 | 28.20378 | 85.56985 | 13321 ft | 96 kts | 283° |
| 2025-12-29 20:06 | 28.20531 | 85.55399 | 14059 ft | 97 kts | 276° |
| 2025-12-29 20:07 | 28.20578 | 85.53810 | 14488 ft | 99 kts | 276° |
| 2025-12-29 20:07 | 28.20645 | 85.52229 | 14792 ft | 113 kts | 277° |
| 2025-12-29 20:08 | 28.20696 | 85.50401 | 15207 ft | 118 kts | 275° |
| 2025-12-29 20:08 | 28.20729 | 85.49475 | 15396 ft | 119 kts | 276° |
| 2025-12-29 20:09 | 28.20466 | 85.47591 | 15732 ft | 124 kts | 251° |
| 2025-12-29 20:09 | 28.19516 | 85.46223 | 16019 ft | 128 kts | 232° |
| 2025-12-29 20:10 | 28.17909 | 85.44290 | 16443 ft | 128 kts | 231° |
| 2025-12-29 20:10 | 28.16686 | 85.42806 | 16765 ft | 128 kts | 231° |
| 2025-12-29 20:11 | 28.15711 | 85.41643 | 17017 ft | 127 kts | 232° |
| 2025-12-29 20:11 | 28.14624 | 85.40361 | 17295 ft | 125 kts | 231° |
| 2025-12-29 20:12 | 28.14018 | 85.39655 | 17450 ft | 125 kts | 227° |
| 2025-12-29 20:12 | 28.12365 | 85.39718 | 17749 ft | 129 kts | 149° |
| 2025-12-29 20:13 | 28.10863 | 85.40804 | 18026 ft | 129 kts | 148° |
| 2025-12-29 20:13 | 28.09594 | 85.42325 | 18229 ft | 137 kts | 124° |
| 2025-12-29 20:14 | 28.07912 | 85.45102 | 18349 ft | 148 kts | 124° |
| 2025-12-29 20:14 | 28.06706 | 85.47055 | 18369 ft | 152 kts | 124° |
| 2025-12-29 20:15 | 28.05448 | 85.49041 | 18363 ft | 156 kts | 124° |
| 2025-12-29 20:15 | 28.04163 | 85.51030 | 18366 ft | 158 kts | 124° |
| 2025-12-29 20:16 | 28.02833 | 85.53101 | 18394 ft | 164 kts | 124° |
| 2025-12-29 20:16 | 28.02178 | 85.54149 | 18432 ft | 164 kts | 124° |
| 2025-12-29 20:16 | 28.01516 | 85.55217 | 18419 ft | 169 kts | 124° |
| 2025-12-29 20:17 | 27.99441 | 85.58616 | 18410 ft | 177 kts | 124° |
| 2025-12-29 20:18 | 27.97300 | 85.62183 | 18326 ft | 186 kts | 124° |
| 2025-12-29 20:18 | 27.95802 | 85.64578 | 18331 ft | 184 kts | 124° |
| 2025-12-29 20:19 | 27.94278 | 85.66947 | 18234 ft | 186 kts | 124° |
| 2025-12-29 20:19 | 27.92726 | 85.69304 | 18117 ft | 187 kts | 124° |
| 2025-12-29 20:20 | 27.91227 | 85.71728 | 18007 ft | 188 kts | 121° |
| 2025-12-29 20:20 | 27.90507 | 85.72954 | 17961 ft | 188 kts | 121° |
| 2025-12-29 20:21 | 27.89086 | 85.75452 | 17827 ft | 186 kts | 121° |
| 2025-12-29 20:21 | 27.87712 | 85.77922 | 17707 ft | 184 kts | 121° |
| 2025-12-29 20:22 | 27.85681 | 85.81585 | 17568 ft | 183 kts | 121° |
| 2025-12-29 20:22 | 27.84975 | 85.82797 | 17524 ft | 186 kts | 121° |
| 2025-12-29 20:23 | 27.82758 | 85.86464 | 17353 ft | 184 kts | 121° |
| 2025-12-29 20:23 | 27.81359 | 85.88883 | 17260 ft | 180 kts | 121° |
| 2025-12-29 20:24 | 27.79978 | 85.91266 | 17170 ft | 180 kts | 121° |
| 2025-12-29 20:24 | 27.79302 | 85.92462 | 17129 ft | 178 kts | 121° |
| 2025-12-29 20:25 | 27.77958 | 85.94867 | 17046 ft | 182 kts | 117° |
| 2025-12-29 20:25 | 27.76919 | 85.97446 | 16976 ft | 179 kts | 110° |
| 2025-12-29 20:26 | 27.75282 | 86.01313 | 16843 ft | 181 kts | 111° |
| 2025-12-29 20:26 | 27.74375 | 86.03940 | 16695 ft | 179 kts | 108° |
| 2025-12-29 20:27 | 27.73499 | 86.06600 | 16571 ft | 180 kts | 107° |
| 2025-12-29 20:27 | 27.72629 | 86.09283 | 16439 ft | 182 kts | 107° |
| 2025-12-29 20:28 | 27.71705 | 86.12014 | 16314 ft | 185 kts | 107° |
| 2025-12-29 20:28 | 27.71233 | 86.13371 | 16250 ft | 185 kts | 106° |
| 2025-12-29 20:29 | 27.70321 | 86.16039 | 16108 ft | 178 kts | 106° |
| 2025-12-29 20:29 | 27.69441 | 86.18664 | 16026 ft | 179 kts | 106° |
| 2025-12-29 20:30 | 27.68036 | 86.22721 | 15864 ft | 189 kts | 106° |
| 2025-12-29 20:30 | 27.67091 | 86.25528 | 15747 ft | 191 kts | 106° |
| 2025-12-29 20:31 | 27.66185 | 86.28317 | 15671 ft | 187 kts | 106° |
| 2025-12-29 20:31 | 27.65321 | 86.31074 | 15618 ft | 183 kts | 105° |
| 2025-12-29 20:32 | 27.64477 | 86.33774 | 15536 ft | 182 kts | 105° |
| 2025-12-29 20:32 | 27.64040 | 86.35126 | 15506 ft | 182 kts | 107° |
| 2025-12-29 20:33 | 27.63112 | 86.37841 | 15452 ft | 188 kts | 109° |
| 2025-12-29 20:33 | 27.61911 | 86.40588 | 15391 ft | 194 kts | 112° |
| 2025-12-29 20:33 | 27.61305 | 86.41950 | 15359 ft | 193 kts | 112° |
| 2025-12-29 20:34 | 27.58923 | 86.47327 | 15214 ft | 188 kts | 112° |
| 2025-12-29 20:35 | 27.57756 | 86.49997 | 15019 ft | 186 kts | 113° |
| 2025-12-29 20:35 | 27.56717 | 86.52564 | 14737 ft | 173 kts | 100° |
| 2025-12-29 20:36 | 27.56704 | 86.55132 | 14468 ft | 155 kts | 74° |
| 2025-12-29 20:36 | 27.56845 | 86.56300 | 14337 ft | 146 kts | 73° |
| 2025-12-29 20:37 | 27.57094 | 86.58456 | 14064 ft | 131 kts | 74° |
| 2025-12-29 20:37 | 27.57197 | 86.60463 | 13750 ft | 121 kts | 82° |
| 2025-12-29 20:38 | 27.56862 | 86.63474 | 12998 ft | 135 kts | 93° |
| 2025-12-29 20:38 | 27.56480 | 86.65439 | 12729 ft | 113 kts | 99° |
| 2025-12-29 20:39 | 27.56561 | 86.66984 | 12136 ft | 100 kts | 24° |
| 2025-12-29 20:39 | 27.57650 | 86.67615 | 11778 ft | 90 kts | 21° |
| 2025-12-29 20:40 | 27.58679 | 86.68225 | 11297 ft | 84 kts | 19° |
| 2025-12-29 20:40 | 27.59191 | 86.68467 | 11055 ft | 82 kts | 12° |
| 2025-12-29 20:41 | 27.60293 | 86.68806 | 10529 ft | 82 kts | 9° |
| 2025-12-29 20:41 | 27.61424 | 86.69100 | 10091 ft | 82 kts | 7° |
| 2025-12-29 20:42 | 27.63138 | 86.69586 | 9684 ft | 86 kts | 10° |
| 2025-12-29 20:42 | 27.64331 | 86.69894 | 9527 ft | 87 kts | 4° |
| 2025-12-29 20:43 | 27.65576 | 86.70162 | 9475 ft | 87 kts | 0° |
| 2025-12-29 20:43 | 27.66786 | 86.70325 | 9466 ft | 82 kts | 3° |
| 2025-12-29 20:44 | 27.67674 | 86.70923 | 9004 ft | 83 kts | 54° |
| 2025-12-29 20:44 | 27.67891 | 86.71497 | 8936 ft | 71 kts | 50° |
| 2025-12-29 20:45 | 27.68412 | 86.72413 | 9095 ft | 60 kts | 38° |
| 2025-12-29 20:45 | 27.68415 | 86.72494 | 9247 ft | 82 kts | 215° |
| 2025-12-29 20:46 | 27.68374 | 86.72023 | 9900 ft | 81 kts | 341° |
| 2025-12-29 20:46 | 27.67730 | 86.71340 | 9787 ft | 113 kts | 147° |
| 2025-12-29 20:47 | 27.67195 | 86.71193 | 9435 ft | 96 kts | 356° |
| 2025-12-29 20:47 | 27.68066 | 86.71690 | 9146 ft | 78 kts | 62° |
| 2025-12-29 20:48 | 27.68103 | 86.72487 | 9153 ft | 5 kts | 70° |
| 2025-12-29 20:48 | 27.68113 | 86.72488 | 9130 ft | 13 kts | 84° |
| 2025-12-29 20:49 | 27.68155 | 86.72465 | 9019 ft | 33 kts | 107° |
| 2025-12-29 20:49 | 27.68237 | 86.72399 | 8811 ft | 46 kts | 4° |
| 2025-12-29 20:51 | 27.68732 | 86.73158 | 9440 ft | 0 kts | 359° |
| 2025-12-29 20:51 | 27.68733 | 86.73170 | 9442 ft | 0 kts | 62° |